Time;durP1;ratioP1;P1;durP2;ratioP2;P2;SDS_P1;SDS_P2;PMS_P1;PMS_P2;Temp;Humidity;BMP_temperature;BMP_pressure;BME280_temperature;BME280_humidity;BME280_pressure;Samples;Min_cycle;Max_cycle;Signal;HPM_P1;HPM_P2
2022/07/26 00:01:51;;;;;;;6.23;3.00;;;24.30;59.60;;;;;;5068970;28;20469;-73
2022/07/26 00:04:16;;;;;;;4.27;2.43;;;24.20;59.60;;;;;;5070385;28;20185;-73
2022/07/26 00:06:42;;;;;;;7.50;2.70;;;24.20;59.70;;;;;;5060653;28;20219;-72
2022/07/26 00:09:08;;;;;;;5.93;2.37;;;24.10;60.10;;;;;;5067851;28;20190;-72
2022/07/26 00:11:33;;;;;;;3.20;2.23;;;24.00;60.60;;;;;;5070051;28;20260;-73
2022/07/26 00:14:04;;;;;;;3.77;2.20;;;24.00;60.90;;;;;;5079239;28;20264;-72
2022/07/26 00:16:31;;;;;;;5.23;2.43;;;24.00;60.90;;;;;;5071688;28;20329;-73
2022/07/26 00:18:56;;;;;;;4.40;2.53;;;24.00;60.90;;;;;;5071064;28;20432;-72
2022/07/26 00:21:22;;;;;;;3.90;2.30;;;24.00;61.00;;;;;;5074627;28;20429;-73
2022/07/26 00:23:48;;;;;;;3.73;2.40;;;24.00;61.00;;;;;;5073988;28;20209;-72
2022/07/26 00:26:14;;;;;;;3.67;2.37;;;24.10;60.70;;;;;;5071647;28;20209;-73
2022/07/26 00:28:40;;;;;;;3.93;2.30;;;24.10;60.70;;;;;;5073480;28;20199;-73
2022/07/26 00:31:06;;;;;;;4.17;2.27;;;24.10;60.90;;;;;;5073575;28;20179;-73
2022/07/26 00:33:32;;;;;;;3.90;2.40;;;24.00;61.00;;;;;;5073838;28;20424;-72
2022/07/26 00:35:58;;;;;;;4.70;2.53;;;23.90;61.30;;;;;;5071313;28;20509;-72
2022/07/26 00:38:24;;;;;;;4.47;2.80;;;23.90;61.30;;;;;;5073364;28;20614;-73
2022/07/26 00:40:49;;;;;;;4.60;2.63;;;23.90;61.50;;;;;;5073451;28;20674;-73
2022/07/26 00:43:15;;;;;;;5.33;2.70;;;23.90;61.60;;;;;;5073471;28;20431;-72
2022/07/26 00:45:41;;;;;;;3.87;2.50;;;23.80;61.90;;;;;;5071844;28;20275;-72
2022/07/26 00:48:06;;;;;;;3.47;2.10;;;23.70;62.20;;;;;;5072156;28;20215;-71
2022/07/26 00:50:32;;;;;;;4.00;2.77;;;23.70;62.50;;;;;;5073449;28;20184;-73
2022/07/26 00:52:58;;;;;;;3.83;2.50;;;23.80;62.30;;;;;;5073247;28;20194;-73
2022/07/26 00:55:23;;;;;;;4.07;3.07;;;23.80;62.30;;;;;;5073050;28;20273;-73
2022/07/26 00:57:49;;;;;;;4.60;2.50;;;23.70;62.80;;;;;;5071296;28;20209;-72
2022/07/26 01:00:19;;;;;;;3.30;2.30;;;23.60;63.40;;;;;;5071583;28;20663;-73
2022/07/26 01:02:45;;;;;;;6.00;2.53;;;23.60;63.50;;;;;;5072902;28;20188;-73
2022/07/26 01:05:11;;;;;;;3.27;1.97;;;23.50;63.90;;;;;;5072986;28;20519;-73
2022/07/26 01:07:37;;;;;;;4.77;2.20;;;23.50;63.90;;;;;;5071400;28;20279;-73
2022/07/26 01:10:11;;;;;;;2.80;1.80;;;23.50;64.40;;;;;;5070470;28;20660;-73
2022/07/26 01:12:37;;;;;;;3.67;2.20;;;23.40;64.80;;;;;;5066916;28;20411;-72
2022/07/26 01:15:03;;;;;;;4.73;2.13;;;23.40;65.60;;;;;;5072709;28;20459;-73
2022/07/26 01:17:29;;;;;;;3.37;2.10;;;23.30;67.20;;;;;;5067646;28;20554;-74
2022/07/26 01:19:54;;;;;;;2.73;1.70;;;23.20;68.90;;;;;;5059831;28;20451;-73
2022/07/26 01:22:20;;;;;;;6.23;2.73;;;22.90;71.00;;;;;;5071038;28;20702;-72
2022/07/26 01:24:46;;;;;;;3.90;2.57;;;22.30;74.20;;;;;;5072731;28;20187;-72
2022/07/26 01:27:12;;;;;;;5.17;1.90;;;21.90;76.80;;;;;;5070058;28;20214;-72
2022/07/26 01:29:37;;;;;;;5.73;2.47;;;21.70;78.00;;;;;;5072009;28;20179;-71
2022/07/26 01:32:04;;;;;;;5.73;2.80;;;21.30;79.60;;;;;;5072585;28;20186;-73
2022/07/26 01:34:30;;;;;;;5.33;2.40;;;21.30;80.20;;;;;;5072396;28;20185;-72
2022/07/26 01:36:55;;;;;;;4.73;2.17;;;21.30;80.50;;;;;;5070047;28;20483;-72
2022/07/26 01:39:21;;;;;;;2.17;1.90;;;21.30;81.20;;;;;;5072353;28;20209;-72
2022/07/26 01:41:47;;;;;;;4.07;2.30;;;21.30;81.50;;;;;;5072647;28;20189;-73
2022/07/26 01:44:12;;;;;;;4.63;2.30;;;21.20;81.90;;;;;;5070906;28;20766;-72
2022/07/26 01:46:38;;;;;;;5.23;2.10;;;21.20;81.90;;;;;;5069890;28;20275;-71
2022/07/26 01:49:05;;;;;;;2.37;2.20;;;21.10;82.40;;;;;;5072661;28;20232;-71
2022/07/26 01:51:31;;;;;;;3.10;2.00;;;21.10;82.10;;;;;;5075079;28;20187;-73
2022/07/26 01:53:57;;;;;;;3.50;2.20;;;21.10;81.90;;;;;;5073496;28;20420;-73
2022/07/26 01:56:22;;;;;;;3.50;2.23;;;21.30;81.70;;;;;;5072251;28;20264;-72
2022/07/26 01:58:48;;;;;;;3.27;1.80;;;21.40;81.10;;;;;;5074265;28;20644;-72
2022/07/26 02:01:14;;;;;;;4.20;2.30;;;21.50;80.50;;;;;;5075307;28;20183;-73
2022/07/26 02:03:40;;;;;;;10.20;2.47;;;21.60;79.70;;;;;;5075313;28;20443;-73
2022/07/26 02:06:06;;;;;;;3.53;1.97;;;21.70;79.20;;;;;;5072987;28;20617;-74
2022/07/26 02:08:32;;;;;;;4.17;2.60;;;21.60;78.60;;;;;;5070076;28;20182;-73
2022/07/26 02:11:00;;;;;;;3.43;2.50;;;21.60;77.80;;;;;;5078051;28;20269;-72
2022/07/26 02:13:34;;;;;;;4.50;1.97;;;21.60;77.70;;;;;;5083111;28;20274;-72
2022/07/26 02:16:02;;;;;;;4.00;2.47;;;21.70;76.80;;;;;;5080027;28;20456;-71
2022/07/26 02:18:28;;;;;;;3.10;2.20;;;21.60;77.40;;;;;;5080253;28;20425;-73
2022/07/26 02:20:55;;;;;;;3.77;2.40;;;21.60;77.60;;;;;;5080850;28;20501;-72
2022/07/26 02:23:21;;;;;;;3.30;2.00;;;21.80;77.00;;;;;;5082742;28;20463;-72
2022/07/26 02:25:47;;;;;;;2.80;2.00;;;21.90;75.80;;;;;;5078441;28;20457;-72
2022/07/26 02:28:14;;;;;;;3.53;2.60;;;21.90;75.10;;;;;;5073870;28;20555;-74
2022/07/26 02:30:40;;;;;;;3.83;2.30;;;22.00;74.90;;;;;;5072320;28;20515;-73
2022/07/26 02:33:06;;;;;;;3.23;2.30;;;22.00;74.60;;;;;;5071648;28;20425;-74
2022/07/26 02:35:32;;;;;;;3.07;1.80;;;22.10;74.80;;;;;;5071461;28;20903;-74
2022/07/26 02:38:05;;;;;;;3.90;1.80;;;22.10;74.50;;;;;;5069978;28;20247;-72
2022/07/26 02:40:31;;;;;;;3.77;2.00;;;22.10;75.20;;;;;;5072678;28;20224;-74
2022/07/26 02:42:57;;;;;;;3.10;1.83;;;22.10;75.70;;;;;;5075499;28;20441;-72
2022/07/26 02:45:24;;;;;;;3.13;2.13;;;22.00;76.10;;;;;;5081390;28;20425;-73
2022/07/26 02:47:51;;;;;;;2.83;2.00;;;22.00;76.20;;;;;;5076803;28;20230;-72
2022/07/26 02:50:19;;;;;;;2.50;1.80;;;22.00;76.10;;;;;;5071643;28;20416;-74
2022/07/26 02:52:48;;;;;;;3.00;1.60;;;22.00;76.10;;;;;;5071069;28;20472;-72
2022/07/26 02:55:15;;;;;;;2.80;1.90;;;22.00;76.40;;;;;;5070929;28;20481;-73
2022/07/26 02:57:41;;;;;;;3.00;1.80;;;22.00;76.20;;;;;;5068268;28;20491;-74
2022/07/26 03:00:08;;;;;;;3.13;2.03;;;22.00;75.90;;;;;;5070600;28;20461;-73
2022/07/26 03:02:34;;;;;;;4.43;2.20;;;22.10;75.80;;;;;;5070992;28;20744;-72
2022/07/26 03:05:01;;;;;;;3.40;1.90;;;22.10;75.20;;;;;;5071090;28;20499;-76
2022/07/26 03:07:27;;;;;;;6.00;1.70;;;22.00;75.20;;;;;;5068420;28;21009;-73
2022/07/26 03:09:52;;;;;;;2.27;1.67;;;22.00;75.50;;;;;;5070486;28;20463;-74
2022/07/26 03:12:18;;;;;;;5.80;1.90;;;21.90;75.50;;;;;;5070726;28;20856;-72
2022/07/26 03:14:44;;;;;;;2.83;1.80;;;22.00;75.50;;;;;;5071041;28;20186;-73
2022/07/26 03:17:09;;;;;;;2.80;2.00;;;22.00;75.50;;;;;;5067697;28;20291;-72
2022/07/26 03:19:35;;;;;;;2.40;1.80;;;22.00;75.40;;;;;;5070516;28;20225;-73
2022/07/26 03:22:00;;;;;;;3.77;1.97;;;22.10;74.90;;;;;;5070821;28;20221;-72
2022/07/26 03:24:26;;;;;;;4.00;1.70;;;22.00;75.10;;;;;;5070858;28;20191;-72
2022/07/26 03:26:51;;;;;;;3.63;2.00;;;22.00;75.20;;;;;;5068116;28;20219;-73
2022/07/26 03:29:17;;;;;;;3.73;2.07;;;21.90;75.40;;;;;;5070411;28;20206;-74
2022/07/26 03:31:43;;;;;;;2.87;1.97;;;21.80;75.70;;;;;;5071017;28;20186;-74
2022/07/26 03:34:08;;;;;;;3.10;2.10;;;21.80;75.80;;;;;;5070747;28;20260;-73
2022/07/26 03:36:34;;;;;;;3.67;2.40;;;21.70;75.90;;;;;;5068581;28;20206;-73
2022/07/26 03:39:00;;;;;;;4.60;2.00;;;21.70;76.20;;;;;;5070211;28;20184;-72
2022/07/26 03:41:25;;;;;;;3.67;2.03;;;21.70;75.90;;;;;;5070678;28;20179;-72
2022/07/26 03:43:51;;;;;;;3.10;2.27;;;21.70;75.90;;;;;;5070864;28;20340;-75
2022/07/26 03:46:16;;;;;;;3.33;2.10;;;21.80;75.80;;;;;;5071181;28;20207;-75
2022/07/26 03:48:42;;;;;;;4.20;2.07;;;21.80;75.80;;;;;;5074072;28;20206;-73
2022/07/26 03:51:07;;;;;;;4.17;1.93;;;21.80;75.70;;;;;;5074417;28;20182;-73
2022/07/26 03:53:33;;;;;;;5.67;2.30;;;21.80;75.80;;;;;;5074526;28;20183;-73
2022/07/26 03:58:43;;;;;;;3.40;2.43;;;21.70;75.90;;;;;;5070837;28;20194;-73
2022/07/26 04:01:09;;;;;;;2.37;1.87;;;21.60;76.20;;;;;;5073805;28;20790;-73
2022/07/26 04:03:35;;;;;;;3.80;2.13;;;21.60;76.20;;;;;;5073987;28;20198;-73
2022/07/26 04:06:01;;;;;;;3.53;2.10;;;21.60;76.70;;;;;;5070316;28;20210;-72
2022/07/26 04:08:27;;;;;;;4.80;2.27;;;21.50;76.70;;;;;;5073375;28;20202;-72
2022/07/26 04:10:52;;;;;;;3.50;2.77;;;21.60;76.40;;;;;;5073999;28;20503;-73
2022/07/26 04:13:19;;;;;;;10.30;2.33;;;21.50;76.40;;;;;;5074110;28;20605;-72
2022/07/26 04:15:45;;;;;;;3.30;2.20;;;21.50;76.50;;;;;;5071615;28;20973;-73
2022/07/26 04:18:12;;;;;;;2.90;2.00;;;21.50;76.50;;;;;;5072886;28;20515;-72
2022/07/26 04:20:38;;;;;;;4.43;2.23;;;21.50;76.50;;;;;;5072503;28;20431;-73
2022/07/26 04:23:04;;;;;;;4.17;2.20;;;21.50;76.50;;;;;;5074069;28;20509;-71
2022/07/26 04:25:29;;;;;;;2.47;2.00;;;21.40;76.80;;;;;;5073908;28;20180;-73
2022/07/26 04:27:55;;;;;;;3.53;2.20;;;21.30;77.00;;;;;;5070109;28;20213;-72
2022/07/26 04:30:21;;;;;;;3.60;2.80;;;21.30;77.10;;;;;;5073443;28;20195;-72
2022/07/26 04:32:46;;;;;;;4.77;2.40;;;21.30;77.10;;;;;;5073590;28;20182;-73
2022/07/26 04:35:12;;;;;;;4.47;2.63;;;21.30;77.30;;;;;;5074004;28;20185;-73
2022/07/26 04:37:40;;;;;;;5.10;2.70;;;21.20;77.60;;;;;;5070344;28;20234;-71
2022/07/26 04:40:07;;;;;;;3.77;2.57;;;21.20;77.60;;;;;;5073166;28;20190;-75
2022/07/26 04:42:32;;;;;;;4.80;2.40;;;21.20;77.70;;;;;;5067225;28;20794;-74
2022/07/26 04:44:58;;;;;;;3.60;2.37;;;21.10;77.70;;;;;;5070994;28;20428;-75
2022/07/26 04:47:23;;;;;;;6.70;2.90;;;21.10;77.70;;;;;;5066648;28;20211;-75
2022/07/26 04:49:49;;;;;;;3.43;2.83;;;21.10;77.80;;;;;;5067935;28;20181;-76
2022/07/26 04:52:14;;;;;;;5.57;2.80;;;21.10;77.70;;;;;;5073910;28;20181;-74
2022/07/26 04:54:40;;;;;;;5.07;2.70;;;21.10;77.80;;;;;;5074209;28;20180;-76
2022/07/26 04:57:06;;;;;;;3.40;2.67;;;21.10;77.80;;;;;;5070927;28;20943;-75
2022/07/26 04:59:31;;;;;;;4.40;2.80;;;21.10;77.80;;;;;;5075289;28;20190;-75
2022/07/26 05:01:57;;;;;;;4.30;2.50;;;21.00;78.10;;;;;;5075126;28;20221;-75
2022/07/26 05:04:22;;;;;;;4.03;2.67;;;21.00;78.10;;;;;;5066848;28;20186;-76
2022/07/26 05:06:48;;;;;;;4.13;2.27;;;21.00;78.30;;;;;;5065589;28;20747;-75
2022/07/26 05:09:14;;;;;;;5.90;2.80;;;21.00;78.30;;;;;;5058738;28;20186;-74
2022/07/26 05:11:39;;;;;;;4.70;2.83;;;21.00;78.30;;;;;;5065617;28;20184;-74
2022/07/26 05:14:05;;;;;;;4.10;2.73;;;21.10;78.30;;;;;;5072619;28;20196;-73
2022/07/26 05:16:31;;;;;;;4.10;2.73;;;21.10;78.00;;;;;;5070479;28;20222;-72
2022/07/26 05:18:56;;;;;;;5.17;3.13;;;21.10;77.80;;;;;;5067396;28;20191;-73
2022/07/26 05:21:22;;;;;;;4.00;2.70;;;21.20;77.70;;;;;;5065760;28;20231;-71
2022/07/26 05:23:48;;;;;;;5.73;3.20;;;21.30;77.40;;;;;;5066476;28;20190;-72
2022/07/26 05:26:13;;;;;;;4.40;3.03;;;21.30;77.30;;;;;;5065027;28;20286;-72
2022/07/26 05:28:39;;;;;;;4.30;3.17;;;21.30;77.30;;;;;;5066747;28;20229;-73
2022/07/26 05:31:05;;;;;;;5.00;2.90;;;21.30;77.10;;;;;;5068780;28;20277;-72
2022/07/26 05:33:31;;;;;;;6.10;3.93;;;21.40;77.10;;;;;;5066069;28;20862;-72
2022/07/26 05:35:56;;;;;;;4.00;3.13;;;21.40;77.00;;;;;;5066758;28;20208;-74
2022/07/26 05:38:24;;;;;;;5.10;3.03;;;21.40;76.80;;;;;;5069855;28;20187;-72
2022/07/26 05:40:50;;;;;;;5.77;3.50;;;21.40;77.00;;;;;;5070143;28;20172;-71
2022/07/26 05:43:16;;;;;;;3.80;3.07;;;21.40;77.00;;;;;;5065832;28;20544;-71
2022/07/26 05:45:41;;;;;;;5.77;4.20;;;21.40;77.30;;;;;;5069399;28;20198;-71
2022/07/26 05:48:07;;;;;;;6.30;4.00;;;21.40;77.10;;;;;;5066436;28;20295;-72
2022/07/26 05:50:32;;;;;;;5.13;3.53;;;21.50;77.00;;;;;;5069619;28;20230;-73
2022/07/26 05:52:58;;;;;;;4.70;3.50;;;21.30;77.00;;;;;;5069123;28;20186;-72
2022/07/26 05:55:23;;;;;;;7.03;4.00;;;21.30;77.40;;;;;;5062719;28;20658;-72
2022/07/26 05:57:49;;;;;;;5.33;4.23;;;21.40;77.40;;;;;;5062827;28;20284;-72
2022/07/26 06:00:15;;;;;;;9.03;3.97;;;21.40;76.80;;;;;;5076454;28;20217;-72
2022/07/26 06:02:41;;;;;;;7.23;3.70;;;21.30;77.10;;;;;;5076462;28;20652;-72
2022/07/26 06:05:07;;;;;;;7.37;4.10;;;21.30;77.00;;;;;;5069706;28;20431;-71
2022/07/26 06:07:32;;;;;;;6.80;3.83;;;21.40;76.80;;;;;;5059349;28;20702;-72
2022/07/26 06:09:58;;;;;;;5.10;3.93;;;21.40;76.50;;;;;;5067371;28;20420;-72
2022/07/26 06:12:24;;;;;;;6.33;3.63;;;21.40;76.50;;;;;;5067544;28;20190;-73
2022/07/26 06:14:50;;;;;;;5.00;3.90;;;21.40;75.90;;;;;;5069235;28;20176;-71
2022/07/26 06:17:16;;;;;;;4.70;3.10;;;21.40;75.70;;;;;;5069014;28;20255;-72
2022/07/26 06:19:42;;;;;;;7.83;3.93;;;21.40;73.60;;;;;;5067104;28;20277;-73
2022/07/26 06:22:07;;;;;;;5.70;2.80;;;21.40;73.70;;;;;;5067270;28;20435;-73
2022/07/26 06:24:33;;;;;;;6.83;3.10;;;21.50;71.70;;;;;;5070781;28;20432;-73
2022/07/26 06:26:59;;;;;;;3.97;2.43;;;21.50;72.40;;;;;;5069062;28;20224;-72
2022/07/26 06:29:25;;;;;;;3.97;2.60;;;21.50;69.10;;;;;;5072157;28;20213;-71
2022/07/26 06:31:51;;;;;;;5.80;2.30;;;21.50;69.90;;;;;;5080193;28;20190;-72
2022/07/26 06:34:17;;;;;;;3.23;2.50;;;21.70;68.60;;;;;;5078802;28;20186;-71
2022/07/26 06:36:43;;;;;;;5.00;3.10;;;21.80;67.20;;;;;;5068634;28;20945;-72
2022/07/26 06:39:09;;;;;;;4.90;2.87;;;21.80;68.30;;;;;;5068621;28;20477;-72
2022/07/26 06:41:35;;;;;;;6.10;3.00;;;22.00;68.30;;;;;;5062982;28;20182;-72
2022/07/26 06:44:00;;;;;;;7.07;2.83;;;22.10;67.60;;;;;;5072417;28;20186;-72
2022/07/26 06:46:26;;;;;;;7.40;2.53;;;22.20;66.90;;;;;;5069399;28;20457;-73
2022/07/26 06:48:52;;;;;;;4.50;2.23;;;22.10;66.00;;;;;;5072443;28;20198;-74
2022/07/26 06:51:17;;;;;;;8.50;2.37;;;22.10;66.10;;;;;;5071124;28;20198;-73
2022/07/26 06:53:43;;;;;;;3.70;2.50;;;22.20;64.10;;;;;;5070573;28;20413;-72
2022/07/26 06:56:09;;;;;;;9.43;2.13;;;22.30;63.40;;;;;;5059315;28;20713;-72
2022/07/26 06:58:34;;;;;;;4.60;2.43;;;22.30;62.60;;;;;;5066974;28;20179;-72
2022/07/26 07:01:00;;;;;;;5.20;2.30;;;22.40;62.60;;;;;;5069004;28;20183;-73
2022/07/26 07:03:26;;;;;;;6.17;2.20;;;22.30;61.90;;;;;;5066137;28;20181;-73
2022/07/26 07:05:51;;;;;;;4.93;2.40;;;22.40;62.20;;;;;;5069850;28;20258;-72
2022/07/26 07:08:18;;;;;;;3.27;1.90;;;22.30;61.30;;;;;;5067727;28;20289;-72
2022/07/26 07:10:44;;;;;;;3.20;1.70;;;22.50;59.30;;;;;;5068938;28;20179;-72
2022/07/26 07:13:09;;;;;;;5.07;1.67;;;22.50;59.10;;;;;;5066943;28;21143;-72
2022/07/26 07:15:35;;;;;;;5.03;1.77;;;22.60;59.30;;;;;;5070594;28;20183;-72
2022/07/26 07:18:00;;;;;;;5.53;1.73;;;22.50;59.60;;;;;;5071812;28;20271;-73
2022/07/26 07:20:27;;;;;;;3.90;1.83;;;22.60;58.90;;;;;;5075073;28;20189;-73
2022/07/26 07:22:53;;;;;;;8.53;1.90;;;22.60;59.10;;;;;;5068999;28;20176;-73
2022/07/26 07:25:18;;;;;;;3.03;2.00;;;22.60;59.20;;;;;;5066844;28;20466;-72
2022/07/26 07:27:44;;;;;;;3.23;1.90;;;22.60;59.50;;;;;;5065469;28;20612;-72
2022/07/26 07:30:10;;;;;;;5.53;3.10;;;22.70;59.20;;;;;;5073079;28;20277;-73
2022/07/26 07:32:36;;;;;;;5.00;1.87;;;22.60;58.90;;;;;;5071342;28;20193;-72
2022/07/26 07:35:03;;;;;;;4.70;2.10;;;22.60;59.10;;;;;;5067281;28;20430;-73
2022/07/26 07:37:28;;;;;;;3.60;2.33;;;22.70;58.90;;;;;;5070927;28;20947;-72
2022/07/26 07:39:54;;;;;;;4.60;2.40;;;22.90;57.60;;;;;;5073433;28;20432;-74
2022/07/26 07:42:19;;;;;;;3.27;2.20;;;22.90;57.80;;;;;;5074093;28;20552;-73
2022/07/26 07:44:45;;;;;;;3.90;2.10;;;22.90;57.40;;;;;;5070958;28;20185;-72
2022/07/26 07:47:11;;;;;;;3.33;2.00;;;23.00;57.70;;;;;;5073000;28;20214;-73
2022/07/26 07:49:37;;;;;;;4.30;2.10;;;23.10;57.60;;;;;;5066306;28;20415;-72
2022/07/26 07:52:03;;;;;;;3.97;2.07;;;23.20;56.90;;;;;;5074231;28;20615;-73
2022/07/26 07:54:28;;;;;;;5.23;2.13;;;23.20;56.60;;;;;;5074061;28;20211;-72
2022/07/26 07:56:55;;;;;;;4.70;2.33;;;23.20;56.20;;;;;;5071057;28;20470;-72
2022/07/26 07:59:21;;;;;;;5.50;2.17;;;23.20;56.40;;;;;;5072318;28;20184;-73
2022/07/26 08:01:47;;;;;;;3.00;1.90;;;23.20;55.80;;;;;;5063781;28;21105;-74
2022/07/26 08:04:13;;;;;;;10.50;2.40;;;22.90;56.20;;;;;;5063166;28;20512;-73
2022/07/26 08:06:38;;;;;;;3.37;1.90;;;22.90;56.50;;;;;;5072581;28;20218;-73
2022/07/26 08:09:04;;;;;;;4.43;2.17;;;23.20;56.10;;;;;;5073364;28;20191;-72
2022/07/26 08:11:30;;;;;;;5.37;2.33;;;23.30;55.60;;;;;;5073287;28;20268;-72
2022/07/26 08:13:56;;;;;;;2.47;1.90;;;23.20;55.20;;;;;;5069089;28;20187;-72
2022/07/26 08:16:21;;;;;;;2.33;1.90;;;23.20;55.20;;;;;;5072589;28;20235;-73
2022/07/26 08:18:47;;;;;;;6.63;2.30;;;23.20;55.60;;;;;;5073727;28;20666;-73
2022/07/26 08:21:13;;;;;;;4.80;1.80;;;23.40;54.80;;;;;;5073708;28;20230;-72
2022/07/26 08:23:38;;;;;;;3.90;2.30;;;23.60;54.80;;;;;;5065724;28;20181;-72
2022/07/26 08:26:04;;;;;;;7.50;3.30;;;23.40;54.40;;;;;;5064689;28;20601;-75
2022/07/26 08:28:30;;;;;;;4.77;2.10;;;23.40;54.40;;;;;;5070763;28;20204;-75
2022/07/26 08:30:55;;;;;;;4.83;2.50;;;23.50;54.60;;;;;;5071083;28;20264;-73
2022/07/26 08:33:22;;;;;;;4.17;2.27;;;23.40;54.10;;;;;;5073607;28;20187;-73
2022/07/26 08:35:48;;;;;;;2.90;1.97;;;23.50;54.00;;;;;;5068144;28;20272;-72
2022/07/26 08:38:13;;;;;;;5.10;2.13;;;23.60;53.20;;;;;;5072368;28;20791;-72
2022/07/26 08:40:39;;;;;;;3.20;2.10;;;23.70;53.30;;;;;;5073257;28;20690;-75
2022/07/26 08:43:05;;;;;;;3.40;1.70;;;23.60;53.80;;;;;;5072838;28;20260;-75
2022/07/26 08:45:31;;;;;;;6.37;1.90;;;23.70;53.60;;;;;;5070709;28;20597;-72
2022/07/26 08:47:58;;;;;;;5.13;1.70;;;23.90;52.60;;;;;;5059671;28;20300;-74
2022/07/26 08:50:24;;;;;;;4.33;2.00;;;23.80;52.60;;;;;;5062829;28;20925;-74
2022/07/26 08:52:50;;;;;;;5.67;1.90;;;24.00;52.20;;;;;;5066629;28;20498;-74
2022/07/26 08:55:18;;;;;;;5.70;1.80;;;24.10;51.30;;;;;;5066954;28;20511;-74
2022/07/26 08:57:44;;;;;;;5.10;2.40;;;23.90;51.70;;;;;;5056954;28;20680;-72
2022/07/26 09:00:25;;;;;;;5.37;2.07;;;23.90;52.20;;;;;;5071401;28;20802;-73
2022/07/26 09:02:52;;;;;;;8.57;2.00;;;24.00;51.70;;;;;;5071608;28;20188;-74
2022/07/26 09:05:19;;;;;;;6.20;2.13;;;24.10;51.70;;;;;;5067504;28;20937;-73
2022/07/26 09:07:46;;;;;;;2.70;1.80;;;24.00;51.30;;;;;;5067822;28;20978;-76
2022/07/26 09:10:13;;;;;;;4.77;1.87;;;23.90;52.00;;;;;;5072726;28;20412;-74
2022/07/26 09:12:40;;;;;;;2.90;1.90;;;24.10;51.40;;;;;;5070790;28;20512;-74
2022/07/26 09:15:19;;;;;;;4.63;1.50;;;24.10;51.60;;;;;;5070652;28;20454;-73
2022/07/26 09:17:50;;;;;;;5.00;1.70;;;24.30;50.70;;;;;;5068507;28;20483;-74
2022/07/26 09:20:24;;;;;;;3.43;2.13;;;24.20;50.60;;;;;;5072876;28;20443;-72
2022/07/26 09:23:16;;;;;;;5.47;2.17;;;24.20;50.90;;;;;;5070411;28;20789;-73
2022/07/26 09:25:44;;;;;;;4.53;2.10;;;24.30;49.50;;;;;;5067580;28;20457;-74
2022/07/26 09:28:30;;;;;;;6.83;2.17;;;24.40;49.40;;;;;;5067488;28;21330;-73
2022/07/26 09:31:03;;;;;;;5.60;2.17;;;24.60;49.40;;;;;;5066444;28;20424;-72
2022/07/26 09:33:45;;;;;;;2.17;1.30;;;24.80;48.70;;;;;;5066206;28;20516;-74
2022/07/26 09:36:11;;;;;;;3.10;1.87;;;24.70;48.60;;;;;;5058995;28;20453;-75
2022/07/26 09:38:47;;;;;;;6.80;2.30;;;24.80;48.70;;;;;;5067781;28;20568;-74
2022/07/26 09:41:28;;;;;;;4.50;1.90;;;24.60;49.00;;;;;;5066582;28;20177;-73
2022/07/26 09:43:55;;;;;;;5.53;1.63;;;24.50;49.10;;;;;;5064969;28;20418;-74
2022/07/26 09:46:24;;;;;;;4.33;2.20;;;24.60;48.20;;;;;;5072866;28;20457;-73
2022/07/26 09:48:51;;;;;;;2.60;1.80;;;24.60;48.70;;;;;;5073733;28;20444;-74
2022/07/26 09:51:36;;;;;;;5.43;2.40;;;24.70;48.20;;;;;;5073919;28;20425;-74
2022/07/26 09:54:02;;;;;;;6.90;2.23;;;24.90;48.60;;;;;;5074078;28;20422;-75
2022/07/26 09:56:50;;;;;;;3.60;2.00;;;24.60;49.80;;;;;;5063032;28;20827;-73
2022/07/26 09:59:18;;;;;;;4.23;1.67;;;24.50;50.30;;;;;;5070008;28;20421;-74
2022/07/26 10:01:44;;;;;;;5.50;1.57;;;24.60;50.20;;;;;;5071158;28;20455;-74
2022/07/26 10:04:10;;;;;;;2.13;1.60;;;24.80;50.20;;;;;;5070378;28;20819;-71
2022/07/26 10:06:36;;;;;;;5.00;1.93;;;24.50;50.10;;;;;;5068394;28;20566;-75
2022/07/26 10:09:04;;;;;;;6.70;1.73;;;23.90;51.80;;;;;;5069021;28;20884;-75
2022/07/26 10:11:46;;;;;;;4.60;1.77;;;23.60;52.80;;;;;;5068679;28;20259;-73
2022/07/26 10:14:34;;;;;;;5.87;1.90;;;23.80;52.60;;;;;;5066469;28;20423;-72
2022/07/26 10:17:00;;;;;;;5.53;2.33;;;23.80;53.00;;;;;;5062646;28;20526;-72
2022/07/26 10:19:40;;;;;;;4.77;2.53;;;24.00;52.40;;;;;;5063887;28;20883;-72
2022/07/26 10:22:29;;;;;;;4.60;2.37;;;24.10;52.40;;;;;;5066734;28;20425;-74
2022/07/26 10:24:56;;;;;;;2.87;1.90;;;23.80;53.00;;;;;;5065172;28;20423;-72
2022/07/26 10:27:41;;;;;;;2.17;1.80;;;23.70;53.40;;;;;;5064534;28;20819;-73
2022/07/26 10:30:16;;;;;;;3.27;1.87;;;23.90;53.70;;;;;;5067767;28;20417;-73
2022/07/26 10:32:50;;;;;;;2.70;1.73;;;24.30;52.90;;;;;;5063955;28;21007;-72
2022/07/26 10:35:39;;;;;;;4.33;2.13;;;24.40;51.80;;;;;;5067136;28;20414;-73
2022/07/26 10:38:24;;;;;;;3.60;1.80;;;24.30;52.80;;;;;;5069659;28;20436;-72
2022/07/26 10:41:06;;;;;;;3.70;2.00;;;24.60;51.60;;;;;;5066937;28;20509;-73
2022/07/26 10:43:33;;;;;;;6.50;2.10;;;24.70;51.20;;;;;;5069907;28;20798;-73
2022/07/26 10:46:17;;;;;;;2.90;1.97;;;25.10;50.10;;;;;;5070054;28;20467;-74
2022/07/26 10:49:05;;;;;;;3.00;1.73;;;25.50;49.40;;;;;;5068946;28;20472;-74
2022/07/26 10:51:35;;;;;;;4.03;1.93;;;25.60;48.70;;;;;;5065808;28;20413;-75
2022/07/26 10:54:03;;;;;;;2.80;1.80;;;25.70;48.50;;;;;;5069324;28;20414;-72
2022/07/26 10:56:29;;;;;;;2.73;2.00;;;25.60;47.70;;;;;;5063630;28;20457;-75
2022/07/26 10:58:55;;;;;;;3.00;2.00;;;24.80;49.90;;;;;;5068095;28;20423;-74
2022/07/26 11:01:21;;;;;;;4.40;1.90;;;24.40;51.60;;;;;;5066403;28;20408;-73
2022/07/26 11:03:47;;;;;;;2.67;1.60;;;24.60;50.60;;;;;;5073313;28;20418;-73
2022/07/26 11:06:18;;;;;;;5.40;1.90;;;24.50;50.20;;;;;;5063196;28;20210;-73
2022/07/26 11:08:46;;;;;;;3.53;1.80;;;24.30;50.70;;;;;;5071438;28;20212;-73
2022/07/26 11:11:13;;;;;;;6.20;1.70;;;24.60;49.80;;;;;;5072254;28;20428;-74
2022/07/26 11:13:39;;;;;;;2.90;1.80;;;24.80;49.50;;;;;;5073092;28;20447;-73
2022/07/26 11:16:07;;;;;;;3.17;1.67;;;24.90;49.10;;;;;;5067203;28;20479;-71
2022/07/26 11:18:35;;;;;;;3.40;1.60;;;24.60;49.70;;;;;;5075319;28;20726;-73
2022/07/26 11:21:11;;;;;;;1.90;1.50;;;24.90;49.40;;;;;;5080291;28;20435;-74
2022/07/26 11:23:39;;;;;;;4.60;2.00;;;25.00;48.60;;;;;;5074938;28;20873;-73
2022/07/26 11:26:07;;;;;;;2.63;1.70;;;24.80;48.90;;;;;;5073923;28;20468;-73
2022/07/26 11:28:48;;;;;;;3.30;1.50;;;24.80;49.70;;;;;;5067241;28;20575;-73
2022/07/26 11:31:15;;;;;;;2.83;1.60;;;25.00;47.90;;;;;;5072432;28;20419;-73
2022/07/26 11:33:43;;;;;;;4.83;1.97;;;25.00;48.20;;;;;;5070596;28;20914;-72
2022/07/26 11:36:09;;;;;;;3.93;1.90;;;25.00;48.60;;;;;;5064256;28;20462;-73
2022/07/26 11:38:53;;;;;;;2.33;1.67;;;25.30;47.70;;;;;;5068431;28;20473;-74
2022/07/26 11:41:24;;;;;;;2.40;1.50;;;24.90;48.20;;;;;;5068853;28;20188;-73
2022/07/26 11:43:51;;;;;;;4.80;1.97;;;24.60;48.70;;;;;;5068162;28;20470;-73
2022/07/26 11:46:18;;;;;;;2.50;1.60;;;24.80;48.10;;;;;;5062769;28;20490;-74
2022/07/26 11:48:49;;;;;;;8.20;2.37;;;25.20;47.70;;;;;;5069684;28;20563;-73
2022/07/26 11:51:16;;;;;;;3.60;1.67;;;25.40;46.30;;;;;;5067598;28;20416;-74
2022/07/26 11:53:42;;;;;;;1.57;1.30;;;25.60;45.90;;;;;;5066330;28;20455;-74
2022/07/26 11:56:16;;;;;;;5.00;1.80;;;25.40;45.40;;;;;;5067460;28;20951;-74
2022/07/26 11:58:44;;;;;;;3.20;1.70;;;25.20;46.60;;;;;;5067298;28;20417;-74
2022/07/26 12:01:12;;;;;;;4.53;1.40;;;25.40;45.80;;;;;;5069857;28;20469;-74
2022/07/26 12:03:39;;;;;;;4.90;1.73;;;25.00;46.90;;;;;;5073127;28;20531;-73
2022/07/26 12:06:11;;;;;;;6.90;1.97;;;25.20;46.20;;;;;;5074753;28;20499;-73
2022/07/26 12:08:45;;;;;;;2.20;1.63;;;25.60;45.70;;;;;;5074794;28;20468;-73
2022/07/26 12:11:12;;;;;;;3.40;1.47;;;25.60;45.40;;;;;;5070725;28;20442;-74
2022/07/26 12:13:56;;;;;;;4.27;1.57;;;25.20;45.70;;;;;;5068418;28;20422;-74
2022/07/26 12:16:44;;;;;;;2.80;2.17;;;25.10;46.20;;;;;;5064520;28;20482;-73
2022/07/26 12:19:23;;;;;;;2.23;1.57;;;25.20;45.80;;;;;;5069457;28;20605;-72
2022/07/26 12:21:52;;;;;;;2.93;1.50;;;25.50;44.50;;;;;;5073509;28;20450;-75
2022/07/26 12:24:38;;;;;;;3.47;1.50;;;25.50;44.70;;;;;;5073716;28;20414;-76
2022/07/26 12:27:11;;;;;;;2.23;1.40;;;25.30;44.90;;;;;;5069219;28;20548;-73
2022/07/26 12:29:39;;;;;;;2.30;1.70;;;25.60;44.50;;;;;;5072417;28;20877;-72
2022/07/26 12:32:10;;;;;;;2.80;1.80;;;25.40;43.90;;;;;;5071208;28;20416;-73
2022/07/26 12:34:37;;;;;;;2.20;1.40;;;24.80;44.90;;;;;;5068769;28;20439;-73
2022/07/26 12:37:16;;;;;;;3.07;1.60;;;24.80;45.50;;;;;;5069133;28;20629;-72
2022/07/26 12:40:10;;;;;;;4.20;1.67;;;24.70;45.90;;;;;;5071959;28;20784;-74
2022/07/26 12:42:41;;;;;;;3.10;1.90;;;24.90;45.10;;;;;;5068285;28;20495;-75
2022/07/26 12:45:09;;;;;;;3.40;1.30;;;25.20;44.50;;;;;;5071866;28;20516;-75
2022/07/26 12:47:36;;;;;;;2.20;1.33;;;25.10;44.30;;;;;;5069901;28;20475;-74
2022/07/26 12:50:07;;;;;;;2.50;1.70;;;25.00;44.90;;;;;;5069763;28;20422;-74
2022/07/26 12:52:34;;;;;;;1.67;1.27;;;25.60;44.10;;;;;;5066390;28;20433;-74